Time;durP1;ratioP1;P1;durP2;ratioP2;P2;SDS_P1;SDS_P2;PMS_P1;PMS_P2;Temp;Humidity;BMP_temperature;BMP_pressure;BME280_temperature;BME280_humidity;BME280_pressure;Samples;Min_cycle;Max_cycle;Signal;HPM_P1;HPM_P2
2023/01/21 00:01:57;;;;;;;4.47;1.23;;;28.30;99.90;;;;;;5075246;28;20183;-69
2023/01/21 00:07:46;;;;;;;3.87;1.03;;;28.30;99.90;;;;;;5073868;28;20261;-69
2023/01/21 00:10:14;;;;;;;5.10;1.00;;;29.00;99.90;;;;;;5075122;28;20176;-69
2023/01/21 00:12:41;;;;;;;3.60;0.90;;;29.50;99.90;;;;;;5075035;28;20260;-69
2023/01/21 00:15:09;;;;;;;6.57;1.00;;;29.30;99.90;;;;;;5074890;28;20168;-70
2023/01/21 00:17:36;;;;;;;4.10;1.00;;;29.30;99.90;;;;;;5074884;28;20198;-69
2023/01/21 00:20:05;;;;;;;5.43;1.10;;;29.40;99.90;;;;;;5075253;28;20222;-70
2023/01/21 00:22:33;;;;;;;8.63;1.10;;;28.50;99.90;;;;;;5075133;28;20179;-68
2023/01/21 00:25:00;;;;;;;4.03;0.87;;;28.30;99.90;;;;;;5074552;28;20536;-68
2023/01/21 00:27:28;;;;;;;2.30;1.07;;;27.70;99.90;;;;;;5074461;28;20211;-69
2023/01/21 00:29:55;;;;;;;3.20;0.70;;;28.40;99.90;;;;;;5074673;28;20168;-75
2023/01/21 00:32:22;;;;;;;3.47;1.00;;;29.10;99.90;;;;;;5074665;28;20206;-70
2023/01/21 00:34:50;;;;;;;5.17;1.23;;;29.50;99.90;;;;;;5074538;28;20263;-71
2023/01/21 00:37:17;;;;;;;3.77;0.90;;;29.30;99.90;;;;;;5074624;28;20171;-74
2023/01/21 00:39:45;;;;;;;6.80;1.37;;;29.10;99.90;;;;;;5074372;28;20164;-67
2023/01/21 00:42:12;;;;;;;4.60;0.97;;;29.40;99.90;;;;;;5074460;28;20233;-69
2023/01/21 00:44:39;;;;;;;7.23;1.10;;;29.10;99.90;;;;;;5074256;28;20221;-71
2023/01/21 00:47:07;;;;;;;2.80;0.70;;;28.60;99.90;;;;;;5073983;28;20688;-69
2023/01/21 00:49:34;;;;;;;4.17;1.20;;;27.90;99.90;;;;;;5074458;28;20171;-70
2023/01/21 00:52:02;;;;;;;4.63;1.10;;;27.80;99.90;;;;;;5072770;28;20184;-69
2023/01/21 00:54:31;;;;;;;3.80;1.10;;;27.60;99.90;;;;;;5072569;28;20173;-72
2023/01/21 00:57:01;;;;;;;3.50;0.93;;;27.40;99.90;;;;;;5074033;28;20180;-69
2023/01/21 00:59:28;;;;;;;9.10;1.33;;;27.90;99.90;;;;;;5074288;28;20613;-67
2023/01/21 01:01:56;;;;;;;2.67;0.70;;;28.30;99.90;;;;;;5074043;28;20175;-69
2023/01/21 01:07:46;;;;;;;8.20;1.20;;;27.70;99.90;;;;;;5072720;28;20235;-75
2023/01/21 01:10:13;;;;;;;3.80;1.17;;;27.50;99.90;;;;;;5073904;28;20179;-75
2023/01/21 01:12:41;;;;;;;5.13;1.50;;;27.60;99.90;;;;;;5073748;28;20656;-70
2023/01/21 01:15:10;;;;;;;3.53;1.30;;;27.50;99.90;;;;;;5073595;28;20176;-72
2023/01/21 01:17:37;;;;;;;4.37;0.77;;;27.80;99.90;;;;;;5073618;28;20172;-73
2023/01/21 01:20:05;;;;;;;6.53;1.00;;;27.70;99.90;;;;;;5073597;28;20202;-68
2023/01/21 01:22:33;;;;;;;5.20;1.20;;;27.60;99.90;;;;;;5073531;28;20172;-67
2023/01/21 01:25:00;;;;;;;6.40;1.30;;;27.40;99.90;;;;;;5073394;28;20621;-68
2023/01/21 01:27:28;;;;;;;5.97;1.00;;;27.10;99.90;;;;;;5073210;28;20242;-68
2023/01/21 01:29:56;;;;;;;3.53;0.90;;;27.10;99.90;;;;;;5073396;28;20589;-69
2023/01/21 01:32:23;;;;;;;6.00;1.10;;;27.20;99.90;;;;;;5073395;28;20174;-71
2023/01/21 01:34:50;;;;;;;6.00;1.10;;;27.10;99.90;;;;;;5073260;28;20172;-68
2023/01/21 01:37:18;;;;;;;9.03;1.13;;;27.20;99.90;;;;;;5073109;28;20200;-74
2023/01/21 01:39:45;;;;;;;7.07;1.50;;;27.00;99.90;;;;;;5073385;28;20582;-72
2023/01/21 01:42:16;;;;;;;5.43;1.40;;;27.00;99.90;;;;;;5071829;28;20222;-69
2023/01/21 01:44:59;;;;;;;4.03;1.10;;;26.90;99.90;;;;;;5071865;28;20179;-68
2023/01/21 01:47:38;;;;;;;4.83;1.07;;;27.80;99.90;;;;;;5073527;28;20265;-68
2023/01/21 01:50:09;;;;;;;10.13;1.40;;;28.90;99.90;;;;;;5073168;28;20172;-69
2023/01/21 01:52:37;;;;;;;3.23;1.07;;;29.70;99.90;;;;;;5073372;28;20186;-74
2023/01/21 01:55:05;;;;;;;4.97;1.33;;;29.50;99.90;;;;;;5073016;28;20164;-76
2023/01/21 01:57:37;;;;;;;6.47;1.10;;;29.40;99.90;;;;;;5073210;28;20222;-75
2023/01/21 02:00:08;;;;;;;9.70;1.30;;;28.40;99.90;;;;;;5073398;28;20266;-68
2023/01/21 02:02:38;;;;;;;7.43;1.73;;;27.50;99.90;;;;;;5073108;28;20179;-68
2023/01/21 02:05:09;;;;;;;6.97;1.30;;;28.00;99.90;;;;;;5072891;28;20203;-69
2023/01/21 02:07:43;;;;;;;5.10;1.00;;;29.00;99.90;;;;;;5072678;28;20239;-68
2023/01/21 02:10:12;;;;;;;5.87;1.30;;;28.80;99.90;;;;;;5072896;28;20680;-76
2023/01/21 02:12:43;;;;;;;6.63;1.50;;;28.30;99.90;;;;;;5072916;28;20259;-68
2023/01/21 02:15:11;;;;;;;8.20;1.87;;;27.50;99.90;;;;;;5073129;28;20168;-68
2023/01/21 02:18:06;;;;;;;8.83;1.80;;;27.10;99.90;;;;;;5072759;28;20183;-70
2023/01/21 02:21:11;;;;;;;3.97;1.23;;;27.10;99.90;;;;;;5073377;28;20168;-70
2023/01/21 02:23:48;;;;;;;6.10;1.50;;;27.80;99.90;;;;;;5073300;28;20176;-68
2023/01/21 02:26:44;;;;;;;5.17;1.30;;;27.90;99.90;;;;;;5073327;28;20222;-69
2023/01/21 02:29:27;;;;;;;4.23;1.17;;;28.30;99.90;;;;;;5072647;28;20168;-70
2023/01/21 02:32:17;;;;;;;4.30;1.40;;;28.80;99.90;;;;;;5073104;28;20172;-69
2023/01/21 02:34:49;;;;;;;3.83;1.00;;;29.20;99.90;;;;;;5053620;28;20211;-68
2023/01/21 02:37:34;;;;;;;5.50;1.07;;;29.00;99.90;;;;;;5072813;28;20172;-69
2023/01/21 02:40:10;;;;;;;10.60;4.17;;;29.50;99.90;;;;;;5072740;28;20259;-69
2023/01/21 02:42:42;;;;;;;5.43;1.63;;;29.40;99.90;;;;;;5073337;28;20168;-69
2023/01/21 02:45:16;;;;;;;4.27;1.07;;;29.00;99.90;;;;;;5072637;28;20184;-68
2023/01/21 02:47:51;;;;;;;6.87;1.70;;;28.90;99.90;;;;;;5072582;28;20218;-72
2023/01/21 02:50:29;;;;;;;5.33;1.10;;;28.90;99.90;;;;;;5076530;28;20289;-68
2023/01/21 02:53:01;;;;;;;8.17;1.20;;;28.70;99.90;;;;;;5076468;28;20618;-69
2023/01/21 02:55:37;;;;;;;4.93;0.90;;;29.00;99.90;;;;;;5076196;28;20684;-68
2023/01/21 02:58:14;;;;;;;6.63;1.07;;;29.40;99.90;;;;;;5076494;28;20180;-73
2023/01/21 03:01:02;;;;;;;5.57;1.10;;;29.50;99.90;;;;;;5076209;28;20178;-67
2023/01/21 03:03:54;;;;;;;4.53;1.03;;;29.60;99.90;;;;;;5076822;28;20183;-67
2023/01/21 03:06:29;;;;;;;8.70;1.03;;;29.50;99.90;;;;;;5076382;28;20310;-68
2023/01/21 03:09:04;;;;;;;8.03;1.07;;;29.70;99.90;;;;;;5075960;28;20230;-71
2023/01/21 03:11:32;;;;;;;3.80;1.00;;;29.80;99.90;;;;;;5074894;28;20179;-69
2023/01/21 03:17:40;;;;;;;2.97;0.80;;;29.60;99.90;;;;;;5076065;28;20195;-69
2023/01/21 03:20:28;;;;;;;3.40;0.77;;;29.90;99.90;;;;;;5076428;28;20176;-69
2023/01/21 03:23:05;;;;;;;2.90;0.87;;;29.00;99.90;;;;;;5076174;28;20170;-69
2023/01/21 03:25:34;;;;;;;5.00;0.83;;;28.80;99.90;;;;;;5075861;28;20175;-76
2023/01/21 03:28:07;;;;;;;2.90;0.90;;;29.30;99.90;;;;;;5075639;28;20210;-68
2023/01/21 03:30:39;;;;;;;5.50;0.70;;;29.40;99.90;;;;;;5074310;28;20183;-68
2023/01/21 03:33:09;;;;;;;3.23;0.90;;;29.40;99.90;;;;;;5075788;28;20179;-69
2023/01/21 03:35:44;;;;;;;3.13;0.90;;;29.30;99.90;;;;;;5075487;28;20168;-70
2023/01/21 03:38:39;;;;;;;4.73;0.90;;;29.30;99.90;;;;;;5075614;28;20180;-69
2023/01/21 03:41:30;;;;;;;3.57;0.63;;;29.10;99.90;;;;;;5075553;28;20172;-67
2023/01/21 03:43:59;;;;;;;1.53;0.63;;;28.90;99.90;;;;;;5075719;28;20184;-68
2023/01/21 03:46:34;;;;;;;4.20;0.70;;;29.10;99.90;;;;;;5075668;28;20203;-68
2023/01/21 03:49:19;;;;;;;4.83;0.70;;;29.20;99.90;;;;;;5075446;28;20668;-71
2023/01/21 03:51:55;;;;;;;3.33;1.00;;;29.70;99.90;;;;;;5075485;28;20176;-70
2023/01/21 03:54:23;;;;;;;6.00;1.03;;;29.80;99.90;;;;;;5075312;28;20221;-69
2023/01/21 03:56:50;;;;;;;3.37;0.80;;;30.00;99.90;;;;;;5075438;28;20275;-69
2023/01/21 03:59:18;;;;;;;1.53;0.50;;;30.40;99.90;;;;;;5075091;28;20246;-76
2023/01/21 04:01:45;;;;;;;3.80;0.83;;;30.80;99.90;;;;;;5075292;28;20652;-75
2023/01/21 04:04:12;;;;;;;5.83;1.27;;;30.50;99.90;;;;;;5075189;28;20179;-69
2023/01/21 04:06:40;;;;;;;4.83;0.77;;;30.30;99.90;;;;;;5075052;28;20242;-69
2023/01/21 04:09:07;;;;;;;5.63;0.90;;;29.80;99.90;;;;;;5074875;28;20238;-69
2023/01/21 04:11:35;;;;;;;2.80;0.70;;;29.70;99.90;;;;;;5074938;28;20525;-73
2023/01/21 04:14:02;;;;;;;4.23;0.80;;;29.50;99.90;;;;;;5074870;28;20180;-75
2023/01/21 04:16:29;;;;;;;4.10;1.20;;;29.80;99.90;;;;;;5075057;28;20179;-69
2023/01/21 04:18:57;;;;;;;9.33;1.27;;;30.40;99.90;;;;;;5075105;28;20266;-68
2023/01/21 04:21:24;;;;;;;5.07;0.83;;;30.00;99.90;;;;;;5074882;28;20685;-68
2023/01/21 04:23:52;;;;;;;5.40;0.90;;;29.20;99.90;;;;;;5074621;28;20652;-68
2023/01/21 04:26:19;;;;;;;8.90;1.00;;;29.10;99.90;;;;;;5074542;28;20215;-68
2023/01/21 04:28:46;;;;;;;3.87;0.90;;;28.80;99.90;;;;;;5074412;28;20175;-68
2023/01/21 04:31:14;;;;;;;2.60;1.00;;;28.10;99.90;;;;;;5073228;28;20187;-68
2023/01/21 04:33:42;;;;;;;2.93;0.80;;;27.80;99.90;;;;;;5074475;28;20645;-69
2023/01/21 04:36:09;;;;;;;4.07;0.83;;;27.30;99.90;;;;;;5074489;28;20179;-68
2023/01/21 04:38:37;;;;;;;2.73;0.83;;;27.20;99.90;;;;;;5074444;28;20188;-69
2023/01/21 04:41:04;;;;;;;4.80;0.93;;;27.10;99.90;;;;;;5074563;28;20597;-69
2023/01/21 04:43:32;;;;;;;7.27;1.33;;;26.60;99.90;;;;;;5074282;28;20541;-79
2023/01/21 04:45:59;;;;;;;2.90;0.90;;;27.20;99.90;;;;;;5074169;28;20742;-69
2023/01/21 04:48:26;;;;;;;4.70;0.97;;;27.70;99.90;;;;;;5074178;28;20633;-68
2023/01/21 04:50:54;;;;;;;3.50;0.80;;;28.00;99.90;;;;;;5074141;28;20203;-76
2023/01/21 04:53:21;;;;;;;2.03;0.57;;;28.70;99.90;;;;;;5074232;28;20171;-74
2023/01/21 04:55:51;;;;;;;6.70;1.30;;;28.90;99.90;;;;;;5074239;28;20172;-70
2023/01/21 04:58:20;;;;;;;5.93;1.40;;;28.50;99.90;;;;;;5074173;28;20229;-68
2023/01/21 05:00:47;;;;;;;5.13;1.10;;;27.50;99.90;;;;;;5074256;28;20175;-68
2023/01/21 05:03:15;;;;;;;2.53;0.97;;;27.10;99.90;;;;;;5074333;28;20180;-68
2023/01/21 05:05:42;;;;;;;4.87;1.10;;;27.10;99.90;;;;;;5074058;28;20176;-68
2023/01/21 05:08:10;;;;;;;4.07;0.70;;;27.00;99.90;;;;;;5073687;28;20228;-70
2023/01/21 05:10:37;;;;;;;4.57;0.93;;;27.00;99.90;;;;;;5073206;28;20180;-70
2023/01/21 05:13:05;;;;;;;4.60;0.80;;;27.70;99.90;;;;;;5073647;28;20172;-69
2023/01/21 05:15:32;;;;;;;4.63;1.23;;;28.10;99.90;;;;;;5073778;28;20203;-69
2023/01/21 05:17:59;;;;;;;4.20;1.07;;;27.90;99.90;;;;;;5073826;28;20168;-70
2023/01/21 05:20:27;;;;;;;4.03;0.93;;;27.80;99.90;;;;;;5073534;28;20232;-68
2023/01/21 05:22:54;;;;;;;3.73;0.80;;;28.00;99.90;;;;;;5073521;28;20179;-68
2023/01/21 05:25:22;;;;;;;7.97;1.30;;;28.00;99.90;;;;;;5073721;28;20168;-68
2023/01/21 05:27:53;;;;;;;5.63;0.80;;;28.00;99.90;;;;;;5073313;28;20350;-74
2023/01/21 05:30:21;;;;;;;1.97;0.63;;;27.50;99.90;;;;;;5073333;28;20251;-68
2023/01/21 05:32:53;;;;;;;4.33;0.80;;;27.40;99.90;;;;;;5073491;28;20519;-68
2023/01/21 05:35:22;;;;;;;6.47;1.00;;;27.10;99.90;;;;;;5073416;28;20632;-69
2023/01/21 05:37:50;;;;;;;6.70;1.63;;;26.70;99.90;;;;;;5073338;28;20175;-69
2023/01/21 05:40:18;;;;;;;2.77;1.00;;;26.50;99.90;;;;;;5073218;28;20176;-69
2023/01/21 05:42:46;;;;;;;3.40;0.93;;;26.30;99.90;;;;;;5073380;28;20172;-69
2023/01/21 05:45:14;;;;;;;1.83;0.83;;;26.00;99.90;;;;;;5071733;28;20184;-68
2023/01/21 05:47:41;;;;;;;3.33;0.80;;;25.80;99.90;;;;;;5073036;28;20595;-70
2023/01/21 05:50:10;;;;;;;5.10;0.90;;;25.40;99.90;;;;;;5073016;28;20272;-74
2023/01/21 05:52:37;;;;;;;3.93;0.77;;;25.20;99.90;;;;;;5073171;28;20187;-69
2023/01/21 05:55:06;;;;;;;5.70;0.97;;;25.00;99.90;;;;;;5072958;28;20652;-69
2023/01/21 05:57:34;;;;;;;3.20;0.70;;;24.90;99.90;;;;;;5073131;28;20203;-68
2023/01/21 06:00:02;;;;;;;6.60;0.90;;;24.80;99.90;;;;;;5073049;28;20566;-68
2023/01/21 06:02:29;;;;;;;5.70;1.07;;;24.90;99.90;;;;;;5073073;28;20183;-68
2023/01/21 06:04:56;;;;;;;5.13;1.10;;;24.90;99.90;;;;;;5072723;28;20240;-67
2023/01/21 06:07:24;;;;;;;11.20;1.10;;;25.10;99.90;;;;;;5072485;28;20212;-68
2023/01/21 06:09:51;;;;;;;4.47;0.97;;;25.10;99.90;;;;;;5072825;28;20236;-72
2023/01/21 06:12:19;;;;;;;3.63;1.03;;;25.20;99.90;;;;;;5072725;28;20199;-68
2023/01/21 06:14:46;;;;;;;4.87;0.90;;;25.20;99.90;;;;;;5072751;28;20172;-69
2023/01/21 06:17:13;;;;;;;6.93;1.47;;;25.30;99.90;;;;;;5072843;28;20176;-68
2023/01/21 06:19:41;;;;;;;3.30;0.73;;;25.40;99.90;;;;;;5073282;28;20194;-68
2023/01/21 06:22:17;;;;;;;5.63;1.23;;;25.40;99.90;;;;;;5073542;28;20755;-69
2023/01/21 06:24:45;;;;;;;2.37;0.73;;;25.40;99.90;;;;;;5077023;28;20213;-74
2023/01/21 06:27:12;;;;;;;6.60;1.30;;;25.50;99.90;;;;;;5076762;28;20219;-68
2023/01/21 06:29:39;;;;;;;5.63;1.17;;;25.30;99.90;;;;;;5077051;28;20182;-69
2023/01/21 06:32:07;;;;;;;4.57;1.00;;;25.40;99.90;;;;;;5076789;28;20179;-71
2023/01/21 06:34:34;;;;;;;7.00;1.10;;;25.20;99.90;;;;;;5077047;28;20175;-69
2023/01/21 06:37:02;;;;;;;6.27;1.07;;;25.20;99.90;;;;;;5076701;28;20187;-68
2023/01/21 06:39:29;;;;;;;3.77;1.20;;;25.10;99.90;;;;;;5076648;28;20176;-68
2023/01/21 06:41:56;;;;;;;5.00;1.27;;;25.10;99.90;;;;;;5076640;28;20546;-68
2023/01/21 06:44:24;;;;;;;4.80;1.33;;;24.60;99.90;;;;;;5076410;28;20176;-69
2023/01/21 06:46:51;;;;;;;4.53;1.37;;;24.40;99.90;;;;;;5075065;28;20679;-69
2023/01/21 06:49:18;;;;;;;5.27;1.20;;;24.20;99.90;;;;;;5076474;28;20497;-67
2023/01/21 06:51:47;;;;;;;4.37;1.20;;;24.10;99.90;;;;;;5076271;28;20176;-68
2023/01/21 06:54:15;;;;;;;7.13;1.50;;;23.90;99.90;;;;;;5076335;28;20266;-67
2023/01/21 06:56:43;;;;;;;6.33;1.30;;;23.90;99.90;;;;;;5076074;28;20598;-67
2023/01/21 06:59:10;;;;;;;9.27;1.40;;;23.70;99.90;;;;;;5076557;28;20179;-70
2023/01/21 07:01:37;;;;;;;5.40;1.57;;;23.60;99.90;;;;;;5076089;28;20171;-68
2023/01/21 07:04:05;;;;;;;4.73;1.13;;;23.60;99.90;;;;;;5076138;28;20237;-68
2023/01/21 07:06:32;;;;;;;4.87;0.90;;;23.70;99.90;;;;;;5076311;28;20206;-68
2023/01/21 07:09:00;;;;;;;9.93;1.20;;;23.90;99.90;;;;;;5075758;28;20215;-68
2023/01/21 07:11:27;;;;;;;6.20;1.30;;;23.90;99.90;;;;;;5076242;28;20180;-67
2023/01/21 07:13:54;;;;;;;6.60;0.70;;;23.80;99.90;;;;;;5074648;28;20178;-72
2023/01/21 07:16:22;;;;;;;4.47;1.10;;;23.70;99.90;;;;;;5075761;28;20187;-68
2023/01/21 07:18:50;;;;;;;3.87;0.90;;;23.70;99.90;;;;;;5075964;28;20178;-68
2023/01/21 07:21:17;;;;;;;5.10;1.20;;;23.80;99.90;;;;;;5075710;28;20754;-70
2023/01/21 07:23:45;;;;;;;10.67;1.63;;;23.80;99.90;;;;;;5075587;28;20172;-68
2023/01/21 07:26:12;;;;;;;13.13;1.33;;;23.80;99.90;;;;;;5075490;28;20199;-69
2023/01/21 07:28:40;;;;;;;5.37;1.33;;;23.70;99.90;;;;;;5075403;28;20183;-73
2023/01/21 07:31:08;;;;;;;5.80;1.23;;;23.40;99.90;;;;;;5075705;28;20219;-68
2023/01/21 07:33:35;;;;;;;5.87;1.07;;;23.40;99.90;;;;;;5075011;28;20182;-69
2023/01/21 07:36:03;;;;;;;5.63;1.43;;;23.20;99.90;;;;;;5075553;28;20183;-68
2023/01/21 07:38:30;;;;;;;4.67;1.20;;;23.10;99.90;;;;;;5075356;28;20178;-68
2023/01/21 07:40:58;;;;;;;6.30;1.30;;;23.00;99.90;;;;;;5075512;28;20176;-68
2023/01/21 07:43:27;;;;;;;3.00;0.90;;;22.80;99.90;;;;;;5075262;28;20225;-68
2023/01/21 07:45:55;;;;;;;4.57;1.00;;;22.70;99.90;;;;;;5075643;28;20221;-68
2023/01/21 07:48:23;;;;;;;9.80;1.00;;;22.60;99.90;;;;;;5075329;28;20180;-68
2023/01/21 07:50:50;;;;;;;4.57;1.20;;;22.60;99.90;;;;;;5075454;28;20172;-73
2023/01/21 07:53:17;;;;;;;3.37;0.93;;;22.60;99.90;;;;;;5075227;28;20168;-68
2023/01/21 07:55:45;;;;;;;3.03;0.90;;;22.60;99.90;;;;;;5075833;28;20595;-69
2023/01/21 07:58:12;;;;;;;2.20;1.00;;;22.50;99.90;;;;;;5075135;28;20232;-69
2023/01/21 08:00:46;;;;;;;4.67;0.90;;;22.30;99.90;;;;;;5075313;28;20168;-75
2023/01/21 08:03:13;;;;;;;4.60;1.53;;;22.20;99.90;;;;;;5074946;28;20180;-73
2023/01/21 08:05:40;;;;;;;8.17;1.43;;;22.30;99.90;;;;;;5075114;28;20168;-76
2023/01/21 08:08:08;;;;;;;4.27;0.90;;;22.30;99.90;;;;;;5074671;28;20685;-69
2023/01/21 08:10:35;;;;;;;4.40;1.03;;;22.30;99.90;;;;;;5075156;28;20313;-69
2023/01/21 08:13:54;;;;;;;2.70;1.00;;;22.40;99.90;;;;;;5074611;28;20186;-71
2023/01/21 08:16:22;;;;;;;3.27;1.00;;;22.50;99.90;;;;;;5074937;28;20176;-76
2023/01/21 08:18:49;;;;;;;5.43;1.10;;;22.30;99.90;;;;;;5074917;28;20195;-68
2023/01/21 08:21:18;;;;;;;2.50;0.90;;;22.30;99.90;;;;;;5075396;28;20524;-75
2023/01/21 08:23:46;;;;;;;2.73;1.00;;;22.30;99.90;;;;;;5074616;28;20164;-69
2023/01/21 08:26:13;;;;;;;5.37;0.83;;;22.30;99.90;;;;;;5074488;28;20211;-75
2023/01/21 08:28:40;;;;;;;2.97;1.00;;;22.30;99.90;;;;;;5074542;28;20183;-68
2023/01/21 08:31:12;;;;;;;5.27;1.23;;;22.20;99.90;;;;;;5074589;28;20172;-68
2023/01/21 08:33:39;;;;;;;7.57;1.40;;;22.20;99.90;;;;;;5074499;28;20176;-69
2023/01/21 08:36:08;;;;;;;4.93;1.00;;;22.20;99.90;;;;;;5074354;28;20175;-69
2023/01/21 08:38:36;;;;;;;4.87;1.43;;;22.10;99.90;;;;;;5074357;28;20170;-68
2023/01/21 08:41:04;;;;;;;5.63;1.00;;;22.00;99.90;;;;;;5074476;28;20328;-68
2023/01/21 08:43:31;;;;;;;5.50;1.20;;;22.10;99.90;;;;;;5074134;28;20661;-71
2023/01/21 08:46:00;;;;;;;3.47;1.00;;;22.10;99.90;;;;;;5072988;28;20240;-68
2023/01/21 08:48:28;;;;;;;2.90;0.97;;;22.10;99.90;;;;;;5074542;28;20679;-71
2023/01/21 08:50:59;;;;;;;3.93;1.23;;;22.10;99.90;;;;;;5074106;28;20173;-68
2023/01/21 08:53:27;;;;;;;3.93;0.90;;;22.10;99.90;;;;;;5074183;28;20180;-68
2023/01/21 08:56:02;;;;;;;4.60;1.23;;;22.20;99.90;;;;;;5073946;28;20568;-76
2023/01/21 08:58:30;;;;;;;3.40;1.03;;;22.20;99.90;;;;;;5074059;28;20181;-68
2023/01/21 09:00:57;;;;;;;4.50;1.50;;;22.20;99.90;;;;;;5073943;28;20238;-74
2023/01/21 09:03:25;;;;;;;4.80;1.17;;;22.10;99.90;;;;;;5073773;28;20255;-68
2023/01/21 09:05:53;;;;;;;12.07;1.90;;;22.20;99.90;;;;;;5073846;28;20176;-68
2023/01/21 09:08:21;;;;;;;4.40;1.23;;;22.20;99.90;;;;;;5073434;28;20593;-68
2023/01/21 09:11:00;;;;;;;5.80;1.20;;;22.30;99.90;;;;;;5073691;28;20191;-73
2023/01/21 09:13:36;;;;;;;7.60;1.60;;;22.20;99.90;;;;;;5073921;28;20176;-69
2023/01/21 09:16:12;;;;;;;2.50;1.33;;;22.10;99.90;;;;;;5073624;28;20726;-71
2023/01/21 09:18:40;;;;;;;4.63;1.40;;;22.00;99.90;;;;;;5073513;28;20648;-68
2023/01/21 09:21:07;;;;;;;5.10;1.13;;;22.10;99.90;;;;;;5073766;28;20180;-73
2023/01/21 09:23:36;;;;;;;5.60;1.47;;;22.10;99.90;;;;;;5073572;28;20168;-70
2023/01/21 09:26:16;;;;;;;4.60;1.47;;;22.10;99.90;;;;;;5073325;28;20204;-70
2023/01/21 09:28:45;;;;;;;6.17;1.23;;;22.00;99.90;;;;;;5073572;28;20174;-69
2023/01/21 09:31:16;;;;;;;5.47;1.37;;;22.00;99.90;;;;;;5073385;28;20172;-69
2023/01/21 09:33:46;;;;;;;7.20;1.73;;;21.90;99.90;;;;;;5073365;28;20176;-69
2023/01/21 09:36:16;;;;;;;5.57;1.30;;;21.90;99.90;;;;;;5073110;28;20181;-70
2023/01/21 09:38:45;;;;;;;5.47;1.47;;;21.90;99.90;;;;;;5072089;28;20190;-71
2023/01/21 09:41:23;;;;;;;7.13;1.90;;;21.90;99.90;;;;;;5073474;28;20176;-69
2023/01/21 09:44:00;;;;;;;4.47;1.10;;;21.80;99.90;;;;;;5073564;28;20183;-72
2023/01/21 09:47:11;;;;;;;6.23;1.37;;;21.80;99.90;;;;;;5073791;28;20200;-70
2023/01/21 09:49:59;;;;;;;4.97;1.40;;;21.80;99.90;;;;;;5064077;28;20237;-77
2023/01/21 09:52:32;;;;;;;5.80;1.73;;;21.80;99.90;;;;;;5073289;28;20190;-68
2023/01/21 09:55:02;;;;;;;7.30;1.50;;;21.80;99.90;;;;;;5073241;28;20690;-68
2023/01/21 09:57:29;;;;;;;8.30;1.87;;;21.80;99.90;;;;;;5072764;28;20240;-69
2023/01/21 10:00:19;;;;;;;4.40;1.30;;;21.80;99.90;;;;;;5071598;28;20569;-70
2023/01/21 10:02:59;;;;;;;3.53;1.13;;;21.70;99.90;;;;;;5073091;28;20596;-70
2023/01/21 10:05:53;;;;;;;8.63;1.30;;;21.70;99.90;;;;;;5073136;28;20218;-69
2023/01/21 10:08:47;;;;;;;6.40;1.47;;;21.70;99.90;;;;;;5072651;28;20240;-69
2023/01/21 10:11:24;;;;;;;4.90;1.23;;;21.70;99.90;;;;;;5072995;28;20665;-69
2023/01/21 10:14:18;;;;;;;4.23;1.13;;;21.60;99.90;;;;;;5073121;28;20175;-75
2023/01/21 10:17:05;;;;;;;3.23;1.43;;;21.60;99.90;;;;;;5073128;28;20167;-69
2023/01/21 10:20:11;;;;;;;3.90;1.10;;;21.60;99.90;;;;;;5073185;28;20170;-68
2023/01/21 10:22:47;;;;;;;4.83;1.00;;;21.50;99.90;;;;;;5060987;28;20198;-74
2023/01/21 10:25:31;;;;;;;8.23;1.20;;;21.50;99.90;;;;;;5072832;28;20176;-69
2023/01/21 10:28:31;;;;;;;7.13;1.60;;;21.50;99.90;;;;;;5073118;28;20367;-69
2023/01/21 10:31:06;;;;;;;6.97;1.13;;;21.40;99.90;;;;;;5060917;28;20185;-69
2023/01/21 10:33:34;;;;;;;7.50;1.20;;;21.30;99.90;;;;;;5072870;28;20175;-69
2023/01/21 10:36:21;;;;;;;7.57;1.30;;;21.30;99.90;;;;;;5072634;28;20171;-69
2023/01/21 10:38:59;;;;;;;4.10;1.20;;;21.30;99.90;;;;;;5072866;28;20688;-69
2023/01/21 10:41:48;;;;;;;4.57;1.77;;;21.30;99.90;;;;;;5073133;28;20179;-68
2023/01/21 10:44:24;;;;;;;6.00;1.10;;;21.20;99.90;;;;;;5072593;28;20172;-68
2023/01/21 10:47:21;;;;;;;7.43;2.93;;;21.10;99.90;;;;;;5072917;28;20268;-73
2023/01/21 10:50:15;;;;;;;4.00;1.00;;;21.10;99.90;;;;;;5073000;28;20683;-69
2023/01/21 10:53:07;;;;;;;3.93;1.10;;;21.10;99.90;;;;;;5072688;28;20199;-72
2023/01/21 10:55:51;;;;;;;6.13;1.10;;;21.10;99.90;;;;;;5072806;28;20635;-71
2023/01/21 10:58:40;;;;;;;4.40;1.23;;;21.10;99.90;;;;;;5072672;28;20182;-69
2023/01/21 11:01:30;;;;;;;4.07;1.03;;;21.10;99.90;;;;;;5072885;28;20190;-68
2023/01/21 11:04:06;;;;;;;10.60;1.63;;;21.10;99.90;;;;;;5072499;28;20536;-67
2023/01/21 11:06:36;;;;;;;5.33;1.30;;;21.10;99.90;;;;;;5072576;28;20209;-69
2023/01/21 11:09:06;;;;;;;2.93;0.90;;;21.00;99.90;;;;;;5072814;28;20228;-69
2023/01/21 11:11:36;;;;;;;5.07;1.20;;;21.00;99.90;;;;;;5075963;28;20182;-68
2023/01/21 11:14:04;;;;;;;4.00;1.00;;;21.10;99.90;;;;;;5076345;28;20617;-69
2023/01/21 11:16:41;;;;;;;3.53;1.00;;;21.10;99.90;;;;;;5076008;28;20190;-68
2023/01/21 11:19:13;;;;;;;2.43;1.07;;;21.20;99.90;;;;;;5075924;28;20182;-68
2023/01/21 11:21:41;;;;;;;6.13;1.70;;;21.20;99.90;;;;;;5076273;28;20637;-68
2023/01/21 11:24:21;;;;;;;4.77;1.00;;;21.20;99.90;;;;;;5075965;28;20180;-80
2023/01/21 11:26:54;;;;;;;4.77;1.00;;;21.30;99.90;;;;;;5074569;28;20210;-74
2023/01/21 11:29:23;;;;;;;9.17;1.30;;;21.30;99.90;;;;;;5074744;28;20272;-69
2023/01/21 11:32:15;;;;;;;3.67;1.03;;;21.20;99.90;;;;;;5075901;28;20183;-69
2023/01/21 11:34:47;;;;;;;10.93;1.07;;;21.30;99.90;;;;;;5074616;28;20182;-73
2023/01/21 11:37:23;;;;;;;2.47;0.90;;;21.20;99.90;;;;;;5074536;28;20187;-70
2023/01/21 11:39:59;;;;;;;5.80;1.10;;;21.10;99.90;;;;;;5074993;28;20272;-68
2023/01/21 11:42:27;;;;;;;5.27;0.83;;;21.10;99.90;;;;;;5074941;28;20636;-68
2023/01/21 11:45:08;;;;;;;5.53;0.90;;;21.10;99.90;;;;;;5075107;28;20630;-69
2023/01/21 11:47:45;;;;;;;3.30;1.00;;;21.10;99.90;;;;;;5074688;28;20235;-69
2023/01/21 11:50:26;;;;;;;4.67;1.10;;;21.10;99.90;;;;;;5074225;28;20176;-71
2023/01/21 11:53:12;;;;;;;4.73;0.80;;;21.10;99.90;;;;;;5074871;28;20183;-69
2023/01/21 11:55:44;;;;;;;3.67;0.90;;;20.90;99.90;;;;;;5074546;28;20278;-74
2023/01/21 11:58:23;;;;;;;6.10;1.60;;;21.00;99.90;;;;;;5074357;28;20574;-70
2023/01/21 12:00:53;;;;;;;4.67;0.87;;;20.90;99.90;;;;;;5074953;28;20176;-70
2023/01/21 12:03:34;;;;;;;4.47;0.80;;;20.90;99.90;;;;;;5074175;28;20180;-69
2023/01/21 12:06:01;;;;;;;4.87;1.00;;;20.80;99.90;;;;;;5074159;28;20179;-69
2023/01/21 12:08:33;;;;;;;5.90;1.37;;;20.90;99.90;;;;;;5074254;28;20229;-77
2023/01/21 12:11:04;;;;;;;5.30;1.47;;;21.00;99.90;;;;;;5074615;28;20191;-70
2023/01/21 12:13:43;;;;;;;5.67;1.37;;;20.90;99.90;;;;;;5074334;28;20179;-71
2023/01/21 12:16:32;;;;;;;5.43;0.70;;;20.90;99.90;;;;;;5074652;28;20187;-70
2023/01/21 12:19:06;;;;;;;6.40;1.03;;;20.90;99.90;;;;;;5074325;28;20172;-75
2023/01/21 12:22:11;;;;;;;5.80;0.90;;;20.90;99.90;;;;;;5074200;28;20190;-70
2023/01/21 12:24:45;;;;;;;7.00;1.13;;;20.80;99.90;;;;;;5047357;28;20260;-74
2023/01/21 12:27:33;;;;;;;6.37;1.67;;;20.80;99.90;;;;;;5054529;28;20239;-69
2023/01/21 12:30:26;;;;;;;4.37;0.90;;;20.80;99.90;;;;;;5054292;28;20718;-69
2023/01/21 12:33:00;;;;;;;4.40;1.10;;;20.90;99.90;;;;;;5065496;28;20276;-69
2023/01/21 12:35:42;;;;;;;6.20;1.40;;;21.00;99.90;;;;;;5072386;28;20183;-70
2023/01/21 12:38:34;;;;;;;4.63;0.90;;;21.00;99.90;;;;;;5074211;28;20185;-69
2023/01/21 12:41:01;;;;;;;3.77;1.20;;;20.90;99.90;;;;;;5073886;28;20172;-69
2023/01/21 12:43:42;;;;;;;5.67;1.53;;;20.90;99.90;;;;;;5072801;28;20176;-76
2023/01/21 12:46:40;;;;;;;5.33;1.03;;;20.90;99.90;;;;;;5073805;28;20226;-68
2023/01/21 12:49:23;;;;;;;5.17;1.00;;;20.90;99.90;;;;;;5073774;28;20333;-68
2023/01/21 12:51:59;;;;;;;5.17;1.50;;;20.90;99.90;;;;;;5072216;28;20546;-70
2023/01/21 12:54:47;;;;;;;5.57;0.90;;;20.90;99.90;;;;;;5073736;28;20174;-70
2023/01/21 12:57:23;;;;;;;3.60;0.93;;;20.90;99.90;;;;;;5073541;28;20202;-70
2023/01/21 13:00:13;;;;;;;7.27;1.43;;;20.90;99.90;;;;;;5073608;28;20317;-69
2023/01/21 13:03:10;;;;;;;7.77;2.03;;;21.10;99.90;;;;;;5073774;28;20171;-69
2023/01/21 13:06:18;;;;;;;8.30;1.83;;;21.30;99.90;;;;;;5072515;28;20523;-74
2023/01/21 13:08:54;;;;;;;7.47;1.30;;;21.20;99.90;;;;;;5071862;28;20233;-69
2023/01/21 13:12:03;;;;;;;8.07;1.43;;;21.30;99.90;;;;;;5072576;28;20182;-72
2023/01/21 13:14:44;;;;;;;3.90;1.20;;;21.30;99.90;;;;;;5021710;28;20205;-70
2023/01/21 13:17:33;;;;;;;11.87;2.07;;;21.20;99.90;;;;;;5026786;28;20214;-70
2023/01/21 13:20:01;;;;;;;3.83;1.30;;;21.30;99.90;;;;;;5045371;28;20275;-69
2023/01/21 13:22:41;;;;;;;6.60;1.33;;;21.20;99.90;;;;;;5053382;28;20543;-75
2023/01/21 13:25:44;;;;;;;5.37;1.10;;;21.10;99.90;;;;;;5072838;28;20645;-70
2023/01/21 13:28:26;;;;;;;4.93;1.10;;;21.20;99.90;;;;;;5030532;28;20300;-67